Time;durP1;ratioP1;P1;durP2;ratioP2;P2;SDS_P1;SDS_P2;PMS_P1;PMS_P2;Temp;Humidity;BMP_temperature;BMP_pressure;BME280_temperature;BME280_humidity;BME280_pressure;Samples;Min_cycle;Max_cycle;Signal;HPM_P1;HPM_P2
2021/01/23 12:23:36;;;;;;;27.87;14.87;;;6.80;99.90;;;;;;1937454;73;24827;-85
2021/01/23 12:26:24;;;;;;;32.35;16.93;;;7.00;99.90;;;;;;1896284;73;21054;-85
2021/01/23 12:28:54;;;;;;;23.30;11.75;;;8.00;99.90;;;;;;1860559;74;21235;-84
2021/01/23 12:31:22;;;;;;;18.90;10.90;;;9.40;99.90;;;;;;1893879;74;21157;-83
2021/01/23 12:33:50;;;;;;;17.70;11.37;;;10.30;99.90;;;;;;1896299;74;21144;-83
2021/01/23 12:36:17;;;;;;;16.97;10.45;;;10.80;99.90;;;;;;1896023;74;21155;-83
2021/01/23 12:38:45;;;;;;;13.88;9.40;;;11.50;99.90;;;;;;1894191;74;21514;-83
2021/01/23 12:41:12;;;;;;;13.20;9.95;;;12.40;99.90;;;;;;1895363;74;21031;-84
2021/01/23 12:43:40;;;;;;;62.17;37.95;;;13.30;99.90;;;;;;1897975;74;21090;-84
2021/01/23 12:46:07;;;;;;;67.22;39.45;;;14.50;99.90;;;;;;1896174;74;21223;-83
2021/01/23 12:48:35;;;;;;;44.25;25.80;;;15.00;99.90;;;;;;1891140;74;22142;-86
2021/01/23 12:51:02;;;;;;;25.65;11.05;;;14.40;99.90;;;;;;1894390;74;21176;-82
2021/01/23 12:53:30;;;;;;;15.98;8.88;;;12.90;99.90;;;;;;1890757;74;21472;-83
2021/01/23 12:56:12;;;;;;;20.48;10.30;;;11.50;99.90;;;;;;1894467;74;21187;-88
2021/01/23 12:58:38;;;;;;;19.77;13.20;;;10.60;99.90;;;;;;1890664;74;21097;-86
2021/01/23 13:01:05;;;;;;;18.70;11.95;;;10.10;99.90;;;;;;1896501;74;21561;-83
2021/01/23 13:03:33;;;;;;;18.55;11.75;;;9.80;99.90;;;;;;1885695;74;21090;-82
2021/01/23 13:06:00;;;;;;;20.80;12.58;;;9.70;99.90;;;;;;1889506;75;21517;-84
2021/01/23 13:08:28;;;;;;;16.77;10.40;;;9.40;99.90;;;;;;1890832;74;21213;-84
2021/01/23 13:10:55;;;;;;;19.05;11.10;;;9.00;99.90;;;;;;1892972;74;21153;-84
2021/01/23 13:13:25;;;;;;;19.35;11.80;;;9.00;99.90;;;;;;1884342;74;21075;-87
2021/01/23 13:15:57;;;;;;;20.95;11.93;;;9.00;99.90;;;;;;1887762;74;21183;-86
2021/01/23 13:18:23;;;;;;;21.10;12.33;;;8.90;99.90;;;;;;1897201;74;21524;-88
2021/01/23 13:20:51;;;;;;;15.60;10.72;;;8.80;99.90;;;;;;1892257;74;21200;-85
2021/01/23 13:23:18;;;;;;;16.07;10.93;;;8.60;99.90;;;;;;1883421;74;21158;-84
2021/01/23 13:25:50;;;;;;;17.12;11.80;;;8.50;99.90;;;;;;1876277;75;21170;-83
2021/01/23 13:28:17;;;;;;;19.37;11.63;;;8.70;99.90;;;;;;1878202;75;21121;-84
2021/01/23 13:30:45;;;;;;;16.90;11.05;;;8.80;99.90;;;;;;1881356;74;21623;-86
2021/01/23 13:33:12;;;;;;;16.82;11.68;;;8.80;99.90;;;;;;1874294;74;21107;-84
2021/01/23 13:35:40;;;;;;;18.48;11.73;;;8.90;99.90;;;;;;1874488;75;21071;-84
2021/01/23 13:38:07;;;;;;;17.02;9.63;;;9.40;99.90;;;;;;1880334;74;21609;-83
2021/01/23 13:40:35;;;;;;;13.35;8.20;;;10.80;99.90;;;;;;1879120;75;21133;-85
2021/01/23 13:43:02;;;;;;;12.85;8.55;;;12.10;99.90;;;;;;1879881;74;21074;-83
2021/01/23 13:45:31;;;;;;;12.33;8.00;;;13.00;99.90;;;;;;1878391;75;21114;-83
2021/01/23 13:47:59;;;;;;;16.00;8.60;;;13.50;99.90;;;;;;1878971;75;21176;-85
2021/01/23 13:50:26;;;;;;;15.93;8.90;;;13.70;99.90;;;;;;1873609;75;21521;-83
2021/01/23 13:52:54;;;;;;;10.88;7.72;;;13.20;99.90;;;;;;1881907;75;21083;-85
2021/01/23 13:55:22;;;;;;;11.93;7.92;;;12.50;99.90;;;;;;1883259;75;21212;-85
2021/01/23 13:57:50;;;;;;;15.32;8.68;;;12.00;99.90;;;;;;1880530;75;22706;-86
2021/01/23 14:00:18;;;;;;;12.65;8.43;;;11.70;99.90;;;;;;1882094;75;21164;-85
2021/01/23 14:02:46;;;;;;;10.23;6.50;;;11.70;99.90;;;;;;1878167;75;21146;-83
2021/01/23 14:05:14;;;;;;;14.07;7.35;;;12.10;99.90;;;;;;1882941;75;21247;-84
2021/01/23 14:07:41;;;;;;;11.73;7.08;;;12.20;99.90;;;;;;1883177;75;21192;-84
2021/01/23 14:10:09;;;;;;;14.07;7.35;;;12.50;99.90;;;;;;1879657;75;21551;-84
2021/01/23 14:12:37;;;;;;;11.10;7.95;;;12.50;99.90;;;;;;1879310;75;21153;-85
2021/01/23 14:15:06;;;;;;;12.68;7.75;;;11.70;99.90;;;;;;1880111;75;21200;-86
2021/01/23 14:17:37;;;;;;;10.72;7.28;;;11.10;99.90;;;;;;1882270;75;21039;-85
2021/01/23 14:20:06;;;;;;;15.05;8.33;;;10.70;99.90;;;;;;1881878;75;21075;-84
2021/01/23 14:22:33;;;;;;;12.63;8.25;;;10.30;99.90;;;;;;1880073;74;21123;-82
2021/01/23 14:25:01;;;;;;;15.50;9.30;;;9.90;99.90;;;;;;1889064;75;21117;-83
2021/01/23 14:27:28;;;;;;;11.68;8.38;;;9.70;99.90;;;;;;1885639;75;21567;-84
2021/01/23 14:30:03;;;;;;;14.65;8.88;;;9.50;99.90;;;;;;1886859;74;21133;-85
2021/01/23 14:32:32;;;;;;;15.80;9.70;;;9.50;99.90;;;;;;1891051;74;21180;-85
2021/01/23 14:35:00;;;;;;;12.85;9.70;;;9.50;99.90;;;;;;1889684;74;21251;-88
2021/01/23 14:37:28;;;;;;;17.87;11.83;;;9.40;99.90;;;;;;1892247;74;21198;-84
2021/01/23 14:39:55;;;;;;;15.95;11.15;;;9.40;99.90;;;;;;1886987;74;21059;-84
2021/01/23 14:42:23;;;;;;;20.52;14.15;;;9.20;99.90;;;;;;1889967;74;21270;-87
2021/01/23 14:44:59;;;;;;;27.82;20.50;;;9.30;99.90;;;;;;1894027;74;21733;-87
2021/01/23 14:47:25;;;;;;;;;;;9.30;99.90;;;;;;1892758;74;21227;-87
2021/01/23 14:49:55;;;;;;;22.75;12.53;;;9.30;99.90;;;;;;1890768;74;20635;-86
2021/01/23 14:52:23;;;;;;;20.05;13.95;;;9.10;99.90;;;;;;1885869;74;21235;-86
2021/01/23 14:54:50;;;;;;;19.70;13.62;;;8.90;99.90;;;;;;1889946;74;21179;-85
2021/01/23 14:57:18;;;;;;;19.90;13.65;;;9.00;99.90;;;;;;1888238;74;21191;-85
2021/01/23 14:59:45;;;;;;;17.23;9.70;;;9.10;99.90;;;;;;1890376;74;21063;-86
2021/01/23 15:02:13;;;;;;;17.87;10.50;;;9.00;99.90;;;;;;1888823;74;21078;-87
2021/01/23 15:04:40;;;;;;;33.80;23.45;;;9.00;99.90;;;;;;1884623;74;21781;-87
2021/01/23 15:07:08;;;;;;;67.70;41.40;;;9.10;99.90;;;;;;1891386;74;21149;-83
2021/01/23 15:09:35;;;;;;;19.40;12.43;;;9.30;99.90;;;;;;1889071;74;21137;-86
2021/01/23 15:12:03;;;;;;;19.67;14.10;;;9.30;99.90;;;;;;1886630;74;21136;-86
2021/01/23 15:14:32;;;;;;;23.70;15.53;;;9.40;99.90;;;;;;1889307;74;21115;-85
2021/01/23 15:16:59;;;;;;;22.93;12.43;;;9.50;99.90;;;;;;1893002;74;21614;-87
2021/01/23 15:19:27;;;;;;;45.63;21.62;;;9.40;99.90;;;;;;1888419;74;21658;-85
2021/01/23 15:21:55;;;;;;;50.90;24.77;;;9.40;99.90;;;;;;1891810;74;21436;-83
2021/01/23 15:24:26;;;;;;;19.23;12.30;;;9.30;99.90;;;;;;1883474;75;21119;-89
2021/01/23 15:26:55;;;;;;;18.40;11.30;;;9.30;99.90;;;;;;1875997;75;21107;-88
2021/01/23 15:29:27;;;;;;;15.23;11.97;;;9.20;99.90;;;;;;1875238;75;21071;-88
2021/01/23 15:32:05;;;;;;;23.70;13.18;;;9.20;99.90;;;;;;1879300;75;21086;-89
2021/01/23 15:34:50;;;;;;;23.38;13.40;;;9.20;99.90;;;;;;1884219;75;21130;-86
2021/01/23 15:37:18;;;;;;;22.82;15.03;;;9.30;99.90;;;;;;1865156;74;21226;-82
2021/01/23 15:39:46;;;;;;;28.87;15.38;;;9.40;99.90;;;;;;1913629;74;21151;-80
2021/01/23 15:42:13;;;;;;;22.13;12.82;;;9.30;99.90;;;;;;1917101;73;21041;-78
2021/01/23 15:44:40;;;;;;;40.10;18.45;;;9.30;99.90;;;;;;1909387;73;21125;-82
2021/01/23 15:47:08;;;;;;;47.35;20.20;;;9.30;99.90;;;;;;1910942;73;21212;-81
2021/01/23 15:49:36;;;;;;;47.98;20.43;;;9.30;99.90;;;;;;1906007;74;22186;-78
2021/01/23 15:52:04;;;;;;;27.90;17.95;;;9.30;99.90;;;;;;1906690;74;21144;-81
2021/01/23 15:54:31;;;;;;;28.98;15.70;;;9.20;99.90;;;;;;1904085;74;21647;-83
2021/01/23 15:56:58;;;;;;;49.40;20.52;;;9.00;99.90;;;;;;1905075;73;21098;-81
2021/01/23 15:59:26;;;;;;;52.20;22.00;;;9.00;99.90;;;;;;1901711;74;21179;-82
2021/01/23 16:01:53;;;;;;;34.45;17.77;;;9.10;99.90;;;;;;1906774;74;21102;-80
2021/01/23 16:04:21;;;;;;;27.82;14.87;;;9.00;99.90;;;;;;1904237;74;21088;-82
2021/01/23 16:06:48;;;;;;;42.67;18.00;;;8.90;99.90;;;;;;1908446;73;21095;-80
2021/01/23 16:09:16;;;;;;;33.05;17.00;;;8.90;99.90;;;;;;1912590;73;21102;-81
2021/01/23 16:11:44;;;;;;;39.05;15.85;;;8.90;99.90;;;;;;1908977;73;21140;-81
2021/01/23 16:14:12;;;;;;;17.48;11.83;;;8.90;99.90;;;;;;1906988;73;21184;-79
2021/01/23 16:16:40;;;;;;;19.25;11.70;;;8.90;99.90;;;;;;1912708;73;21227;-79
2021/01/23 16:19:08;;;;;;;15.50;11.68;;;8.90;99.90;;;;;;1907776;74;21185;-80
2021/01/23 16:21:35;;;;;;;17.92;12.40;;;8.80;99.90;;;;;;1909672;73;21134;-80
2021/01/23 16:24:03;;;;;;;18.73;13.10;;;8.70;99.90;;;;;;1911458;74;21152;-81
2021/01/23 16:26:30;;;;;;;17.77;13.03;;;8.70;99.90;;;;;;1908892;73;21224;-82
2021/01/23 16:28:58;;;;;;;17.25;11.83;;;8.60;99.90;;;;;;1906372;73;21623;-79
2021/01/23 16:31:25;;;;;;;21.40;12.95;;;8.50;99.90;;;;;;1903878;74;21050;-80
2021/01/23 16:33:53;;;;;;;20.85;14.00;;;8.50;99.90;;;;;;1911181;74;21179;-82
2021/01/23 16:36:20;;;;;;;23.18;12.93;;;8.50;99.90;;;;;;1907807;74;21584;-79
2021/01/23 16:38:48;;;;;;;18.10;11.40;;;8.60;99.90;;;;;;1904923;74;21122;-78
2021/01/23 16:41:15;;;;;;;18.02;11.63;;;8.70;99.90;;;;;;1903417;74;21137;-79
2021/01/23 16:43:43;;;;;;;14.53;11.65;;;8.80;99.90;;;;;;1903394;73;21489;-81
2021/01/23 16:46:10;;;;;;;20.57;13.13;;;8.90;99.90;;;;;;1913763;73;21142;-80
2021/01/23 16:48:40;;;;;;;24.32;15.60;;;8.80;99.90;;;;;;1904837;74;21652;-79
2021/01/23 16:51:08;;;;;;;32.23;14.78;;;8.80;99.90;;;;;;1903349;74;21263;-81
2021/01/23 16:53:35;;;;;;;19.57;12.50;;;8.70;99.90;;;;;;1904690;74;21235;-82
2021/01/23 16:56:03;;;;;;;17.98;11.95;;;8.70;99.90;;;;;;1907223;74;21608;-81
2021/01/23 16:58:31;;;;;;;18.95;13.05;;;8.60;99.90;;;;;;1900210;74;21193;-80
2021/01/23 17:00:58;;;;;;;18.00;12.75;;;8.70;99.90;;;;;;1903015;74;21643;-79
2021/01/23 17:03:26;;;;;;;17.62;12.80;;;8.80;99.90;;;;;;1908596;74;21110;-81
2021/01/23 17:05:57;;;;;;;16.02;12.37;;;8.90;99.90;;;;;;1903369;74;21189;-80
2021/01/23 17:08:24;;;;;;;21.65;14.33;;;8.90;99.90;;;;;;1905766;74;21568;-81
2021/01/23 17:10:52;;;;;;;20.85;14.23;;;8.80;99.90;;;;;;1904504;73;21102;-79
2021/01/23 17:13:19;;;;;;;20.62;15.30;;;8.90;99.90;;;;;;1908161;73;21043;-80
2021/01/23 17:15:49;;;;;;;19.40;14.45;;;8.80;99.90;;;;;;1906929;73;21600;-80
2021/01/23 17:18:16;;;;;;;27.80;15.03;;;8.80;99.90;;;;;;1909096;74;21118;-80
2021/01/23 17:20:44;;;;;;;19.00;13.53;;;8.70;99.90;;;;;;1913020;73;21168;-80
2021/01/23 17:23:12;;;;;;;19.50;12.98;;;8.80;99.90;;;;;;1909702;74;21067;-80
2021/01/23 17:25:39;;;;;;;17.62;13.38;;;8.70;99.90;;;;;;1910479;73;21078;-80
2021/01/23 17:28:07;;;;;;;20.45;13.38;;;8.80;99.90;;;;;;1909655;74;21644;-80
2021/01/23 17:30:37;;;;;;;19.48;14.03;;;8.90;99.90;;;;;;1908281;74;21207;-81
2021/01/23 17:33:04;;;;;;;18.70;13.30;;;8.90;99.90;;;;;;1911519;74;21223;-80
2021/01/23 17:35:34;;;;;;;22.93;14.68;;;8.80;99.90;;;;;;1910225;74;21035;-80
2021/01/23 17:38:02;;;;;;;18.30;14.85;;;8.90;99.90;;;;;;1908100;73;21094;-80
2021/01/23 17:40:29;;;;;;;22.30;15.83;;;8.90;99.90;;;;;;1915201;74;21071;-80
2021/01/23 17:42:57;;;;;;;22.10;15.00;;;9.00;99.90;;;;;;1913863;73;21089;-81
2021/01/23 17:45:25;;;;;;;22.73;15.30;;;8.90;99.90;;;;;;1912474;73;21117;-78
2021/01/23 17:47:53;;;;;;;19.40;14.58;;;9.00;99.90;;;;;;1910646;74;21122;-80
2021/01/23 17:50:22;;;;;;;22.00;13.95;;;8.90;99.90;;;;;;1908368;74;21063;-78
2021/01/23 17:52:50;;;;;;;19.92;14.07;;;8.90;99.90;;;;;;1914206;73;21103;-81
2021/01/23 17:55:17;;;;;;;21.30;14.47;;;8.80;99.90;;;;;;1909265;74;21110;-81
2021/01/23 17:57:45;;;;;;;23.95;15.35;;;8.80;99.90;;;;;;1908315;74;21111;-79
2021/01/23 18:00:13;;;;;;;25.97;15.50;;;8.80;99.90;;;;;;1909328;73;21102;-81
2021/01/23 18:02:41;;;;;;;23.87;16.85;;;8.80;99.90;;;;;;1907031;74;21132;-81
2021/01/23 18:05:09;;;;;;;20.85;15.10;;;8.80;99.90;;;;;;1911963;74;20999;-81
2021/01/23 18:07:37;;;;;;;26.37;17.00;;;8.90;99.90;;;;;;1907087;73;21532;-81
2021/01/23 18:10:05;;;;;;;23.10;16.62;;;8.90;99.90;;;;;;1904554;74;21642;-80
2021/01/23 18:12:33;;;;;;;25.95;16.15;;;8.80;99.90;;;;;;1910961;73;21098;-80
2021/01/23 18:15:01;;;;;;;19.32;14.63;;;8.90;99.90;;;;;;1907718;73;21102;-79
2021/01/23 18:17:28;;;;;;;28.35;19.77;;;8.80;99.90;;;;;;1906667;74;21059;-81
2021/01/23 18:19:55;;;;;;;25.30;17.60;;;8.90;99.90;;;;;;1910543;73;21560;-82
2021/01/23 18:22:23;;;;;;;21.02;15.55;;;8.90;99.90;;;;;;1905153;73;21129;-79
2021/01/23 18:24:51;;;;;;;25.43;16.75;;;8.90;99.90;;;;;;1910470;74;21203;-81
2021/01/23 18:27:18;;;;;;;21.90;15.38;;;8.80;99.90;;;;;;1904250;74;21039;-81
2021/01/23 18:29:47;;;;;;;23.12;16.30;;;8.80;99.90;;;;;;1909095;74;21126;-80
2021/01/23 18:32:15;;;;;;;23.10;16.07;;;8.90;99.90;;;;;;1910878;73;21148;-80
2021/01/23 18:34:42;;;;;;;20.30;16.15;;;8.80;99.90;;;;;;1910559;73;21172;-83
2021/01/23 18:37:10;;;;;;;23.32;16.73;;;8.80;99.90;;;;;;1910207;73;21208;-80
2021/01/23 18:39:38;;;;;;;24.37;16.60;;;8.90;99.90;;;;;;1910930;73;21078;-80
2021/01/23 18:42:06;;;;;;;21.70;17.45;;;8.90;99.90;;;;;;1909650;74;21252;-80
2021/01/23 18:44:33;;;;;;;28.90;17.65;;;9.00;99.90;;;;;;1913979;73;21517;-79
2021/01/23 18:47:01;;;;;;;26.15;17.55;;;8.90;99.90;;;;;;1910569;73;21563;-80
2021/01/23 18:49:28;;;;;;;22.95;17.77;;;8.90;99.90;;;;;;1909418;73;21102;-81
2021/01/23 18:51:57;;;;;;;27.48;18.30;;;8.90;99.90;;;;;;1904594;74;21087;-80
2021/01/23 18:54:25;;;;;;;32.05;21.00;;;8.90;99.90;;;;;;1907431;73;21588;-81
2021/01/23 18:56:52;;;;;;;31.75;20.45;;;9.00;99.90;;;;;;1910118;74;21731;-81
2021/01/23 18:59:20;;;;;;;25.17;17.90;;;9.00;99.90;;;;;;1905673;74;21231;-81
2021/01/23 19:01:47;;;;;;;31.00;19.75;;;9.00;99.90;;;;;;1905964;74;21063;-80
2021/01/23 19:04:15;;;;;;;26.20;18.32;;;9.00;99.90;;;;;;1911346;73;21200;-81
2021/01/23 19:06:42;;;;;;;26.65;18.55;;;9.00;99.90;;;;;;1906677;74;21223;-81
2021/01/23 19:09:10;;;;;;;36.53;18.27;;;8.90;99.90;;;;;;1908346;74;21498;-80
2021/01/23 19:11:38;;;;;;;26.55;19.00;;;8.90;99.90;;;;;;1909385;74;21592;-80
2021/01/23 19:14:05;;;;;;;29.77;19.98;;;8.90;99.90;;;;;;1907096;73;21107;-81
2021/01/23 19:16:34;;;;;;;30.40;19.50;;;8.90;99.90;;;;;;1904271;74;21220;-81
2021/01/23 19:19:01;;;;;;;28.57;18.90;;;8.80;99.90;;;;;;1908700;74;21493;-79
2021/01/23 19:21:29;;;;;;;24.95;16.67;;;8.80;99.90;;;;;;1911573;73;21193;-81
2021/01/23 19:23:56;;;;;;;26.02;17.48;;;8.60;99.90;;;;;;1908860;73;21149;-81
2021/01/23 19:26:24;;;;;;;24.70;17.27;;;8.60;99.90;;;;;;1908768;74;21173;-79
2021/01/23 19:28:51;;;;;;;25.97;17.20;;;8.60;99.90;;;;;;1905598;74;21134;-81
2021/01/23 19:31:21;;;;;;;21.10;17.62;;;8.60;99.90;;;;;;1906069;73;21094;-80
2021/01/23 19:33:48;;;;;;;25.40;17.65;;;8.60;99.90;;;;;;1906511;73;21154;-81
2021/01/23 19:36:15;;;;;;;22.37;17.42;;;8.70;99.90;;;;;;1903485;74;21165;-82
2021/01/23 19:38:43;;;;;;;26.15;19.67;;;8.70;99.90;;;;;;1903886;73;22219;-80
2021/01/23 19:41:10;;;;;;;26.27;19.35;;;8.70;99.90;;;;;;1902489;74;21095;-81
2021/01/23 19:43:39;;;;;;;29.23;21.93;;;8.80;99.90;;;;;;1911455;73;21138;-80
2021/01/23 19:46:07;;;;;;;25.00;19.12;;;8.80;99.90;;;;;;1907175;74;21123;-80
2021/01/23 19:48:35;;;;;;;23.52;17.05;;;8.80;99.90;;;;;;1909857;74;21087;-81
2021/01/23 19:51:02;;;;;;;38.50;26.35;;;8.70;99.90;;;;;;1902189;74;21114;-80
2021/01/23 19:53:30;;;;;;;22.70;16.17;;;8.60;99.90;;;;;;1914026;74;21606;-80
2021/01/23 19:55:57;;;;;;;25.35;16.05;;;8.50;99.90;;;;;;1904340;73;21095;-81
2021/01/23 19:58:25;;;;;;;19.30;14.25;;;8.50;99.90;;;;;;1903079;73;21091;-83
2021/01/23 20:00:52;;;;;;;22.93;15.30;;;8.50;99.90;;;;;;1906104;73;21177;-82
2021/01/23 20:03:20;;;;;;;20.30;14.35;;;8.50;99.90;;;;;;1910467;74;21098;-81
2021/01/23 20:05:47;;;;;;;19.37;14.60;;;8.50;99.90;;;;;;1908163;73;21156;-81
2021/01/23 20:08:14;;;;;;;19.92;14.98;;;8.60;99.90;;;;;;1911554;74;21095;-82
2021/01/23 20:10:42;;;;;;;21.45;16.02;;;8.60;99.90;;;;;;1913952;74;21090;-81
2021/01/23 20:13:10;;;;;;;22.35;15.30;;;8.60;99.90;;;;;;1915962;73;21586;-82
2021/01/23 20:15:39;;;;;;;21.30;15.72;;;8.60;99.90;;;;;;1909262;74;21577;-81
2021/01/23 20:18:06;;;;;;;37.40;22.35;;;8.70;99.90;;;;;;1900033;74;21095;-81
2021/01/23 20:20:34;;;;;;;38.80;23.20;;;8.70;99.90;;;;;;1911084;74;21051;-81
2021/01/23 20:23:01;;;;;;;27.77;18.65;;;8.70;99.90;;;;;;1910495;74;21156;-83
2021/01/23 20:25:29;;;;;;;27.37;17.80;;;8.70;99.90;;;;;;1910439;74;21102;-82
2021/01/23 20:27:57;;;;;;;28.00;17.67;;;8.70;99.90;;;;;;1908308;74;21176;-81
2021/01/23 20:30:26;;;;;;;22.37;15.88;;;8.70;99.90;;;;;;1907953;73;21500;-79
2021/01/23 20:32:54;;;;;;;31.50;17.00;;;8.70;99.90;;;;;;1901592;74;21176;-80
2021/01/23 20:35:22;;;;;;;30.60;17.82;;;8.60;99.90;;;;;;1909222;73;21187;-81
2021/01/23 20:37:50;;;;;;;27.15;17.37;;;8.60;99.90;;;;;;1907037;73;21635;-82
2021/01/23 20:40:18;;;;;;;22.90;16.12;;;8.50;99.90;;;;;;1909203;73;21443;-81
2021/01/23 20:42:47;;;;;;;19.55;15.60;;;8.50;99.90;;;;;;1904529;73;21097;-81
2021/01/23 20:45:17;;;;;;;21.37;16.57;;;8.50;99.90;;;;;;1914276;73;21032;-82
2021/01/23 20:47:45;;;;;;;20.82;15.70;;;8.40;99.90;;;;;;1903216;74;21690;-82
2021/01/23 20:50:13;;;;;;;20.97;16.35;;;8.40;99.90;;;;;;1908129;74;21184;-81
2021/01/23 20:52:40;;;;;;;24.85;17.10;;;8.40;99.90;;;;;;1908087;74;21136;-81
2021/01/23 20:55:08;;;;;;;20.75;15.53;;;8.40;99.90;;;;;;1906536;74;21195;-81
2021/01/23 20:57:36;;;;;;;22.87;16.35;;;8.40;99.90;;;;;;1907962;73;21223;-81
2021/01/23 21:00:08;;;;;;;22.27;15.95;;;8.30;99.90;;;;;;1911909;74;21086;-81
2021/01/23 21:02:37;;;;;;;21.20;15.50;;;8.40;99.90;;;;;;1904432;74;21129;-79
2021/01/23 21:05:05;;;;;;;25.92;16.20;;;8.30;99.90;;;;;;1905313;73;21075;-81
2021/01/23 21:07:33;;;;;;;31.80;19.32;;;8.20;99.90;;;;;;1912013;74;21134;-81
2021/01/23 21:10:00;;;;;;;28.80;20.45;;;8.30;99.90;;;;;;1905518;74;21083;-80
2021/01/23 21:12:28;;;;;;;33.65;20.23;;;8.30;99.90;;;;;;1904241;73;21183;-81
2021/01/23 21:14:55;;;;;;;32.05;21.10;;;8.30;99.90;;;;;;1904481;73;21203;-80
2021/01/23 21:17:23;;;;;;;25.80;19.87;;;8.20;99.90;;;;;;1908236;73;21752;-81
2021/01/23 21:19:50;;;;;;;27.77;19.57;;;8.20;99.90;;;;;;1906724;73;21590;-81
2021/01/23 21:22:18;;;;;;;29.95;21.07;;;8.20;99.90;;;;;;1907740;73;21188;-81
2021/01/23 21:24:46;;;;;;;29.50;20.23;;;8.20;99.90;;;;;;1908351;73;21207;-81
2021/01/23 21:27:13;;;;;;;27.73;19.40;;;8.10;99.90;;;;;;1905526;74;21165;-79
2021/01/23 21:29:41;;;;;;;27.73;19.62;;;8.10;99.90;;;;;;1905428;74;21090;-80
2021/01/23 21:32:08;;;;;;;26.93;19.42;;;8.00;99.90;;;;;;1904649;74;21067;-79
2021/01/23 21:34:35;;;;;;;27.30;19.98;;;7.90;99.90;;;;;;1906265;73;21659;-81
2021/01/23 21:39:50;;;;;;;25.70;20.00;;;7.70;99.90;;;;;;1878958;74;21648;-83
2021/01/23 21:42:18;;;;;;;28.67;20.23;;;7.60;99.90;;;;;;1877089;74;21140;-82
2021/01/23 21:44:45;;;;;;;27.17;19.98;;;7.60;99.90;;;;;;1878216;74;21124;-83
2021/01/23 21:47:14;;;;;;;30.65;21.50;;;7.60;99.90;;;;;;1880718;75;21081;-84
2021/01/23 21:49:42;;;;;;;31.65;20.88;;;7.50;99.90;;;;;;1875855;75;21186;-84
2021/01/23 21:52:10;;;;;;;29.63;21.00;;;7.40;99.90;;;;;;1875297;74;21134;-84
2021/01/23 21:54:38;;;;;;;32.50;19.87;;;7.40;99.90;;;;;;1802711;79;21232;-83
2021/01/23 21:57:08;;;;;;;27.90;20.60;;;7.40;99.90;;;;;;1839741;76;21229;-83
2021/01/23 21:59:36;;;;;;;27.30;20.90;;;7.30;99.90;;;;;;1873497;75;21090;-83
2021/01/23 22:02:03;;;;;;;29.12;20.55;;;7.30;99.90;;;;;;1800703;79;21076;-83
2021/01/23 22:04:31;;;;;;;30.10;21.23;;;7.30;99.90;;;;;;1814951;77;21115;-83
2021/01/23 22:06:58;;;;;;;29.52;19.98;;;7.30;99.90;;;;;;1800696;79;21167;-83
2021/01/23 22:09:26;;;;;;;30.10;20.35;;;7.30;99.90;;;;;;1796399;79;21201;-83
2021/01/23 22:11:53;;;;;;;28.42;20.88;;;7.30;99.90;;;;;;1803539;79;21072;-83
2021/01/23 22:14:21;;;;;;;39.08;23.65;;;7.30;99.90;;;;;;1804131;77;21590;-83
2021/01/23 22:16:48;;;;;;;31.87;21.70;;;7.30;99.90;;;;;;1796230;77;21147;-81
2021/01/23 22:19:16;;;;;;;26.30;20.08;;;7.20;99.90;;;;;;1819421;77;21110;-81
2021/01/23 22:21:43;;;;;;;28.40;18.82;;;7.20;99.90;;;;;;1817788;77;21487;-81
2021/01/23 22:24:12;;;;;;;26.87;19.20;;;7.20;99.90;;;;;;1821826;77;21119;-81
2021/01/23 22:26:40;;;;;;;29.95;20.25;;;7.10;99.90;;;;;;1799437;77;21236;-81
2021/01/23 22:29:07;;;;;;;31.95;21.25;;;7.10;99.90;;;;;;1804628;77;21150;-81
2021/01/23 22:31:35;;;;;;;31.12;21.07;;;7.10;99.90;;;;;;1799512;77;21128;-83
2021/01/23 22:34:03;;;;;;;25.55;19.82;;;7.00;99.90;;;;;;1806198;77;21104;-81
2021/01/23 22:36:30;;;;;;;28.77;19.55;;;7.10;99.90;;;;;;1799019;79;21100;-82
2021/01/23 22:38:58;;;;;;;31.05;20.88;;;7.00;99.90;;;;;;1816749;78;21199;-82
2021/01/23 22:41:25;;;;;;;37.13;22.50;;;7.00;99.90;;;;;;1816942;78;21232;-82
2021/01/23 22:43:53;;;;;;;34.08;21.02;;;7.00;99.90;;;;;;1817240;78;21150;-81
2021/01/23 22:46:20;;;;;;;33.58;22.22;;;7.00;99.90;;;;;;1798526;79;21150;-81
2021/01/23 22:48:48;;;;;;;33.65;22.07;;;6.90;99.90;;;;;;1800557;79;21245;-82
2021/01/23 22:51:15;;;;;;;35.95;24.30;;;6.90;99.90;;;;;;1798023;77;21108;-81
2021/01/23 22:53:43;;;;;;;34.73;23.52;;;6.90;99.90;;;;;;1818645;77;21150;-82
2021/01/23 22:56:10;;;;;;;33.05;24.75;;;7.00;99.90;;;;;;1800792;79;21093;-82
2021/01/23 22:58:37;;;;;;;31.90;22.52;;;7.00;99.90;;;;;;1798553;79;21171;-83
2021/01/23 23:01:06;;;;;;;35.50;24.05;;;7.00;99.90;;;;;;1819940;77;21122;-82
2021/01/23 23:03:33;;;;;;;32.35;23.95;;;7.10;99.90;;;;;;1817268;78;21240;-82
2021/01/23 23:06:01;;;;;;;37.08;23.83;;;7.10;99.90;;;;;;1795149;79;21146;-83
2021/01/23 23:08:29;;;;;;;36.25;23.80;;;7.10;99.90;;;;;;1808333;78;21143;-81
2021/01/23 23:10:58;;;;;;;35.40;24.43;;;7.10;99.90;;;;;;1801857;77;21232;-84
2021/01/23 23:13:25;;;;;;;34.05;23.73;;;7.10;99.90;;;;;;1802341;77;21751;-83
2021/01/23 23:15:53;;;;;;;33.98;23.45;;;7.20;99.90;;;;;;1820043;78;21721;-82
2021/01/23 23:18:20;;;;;;;33.05;22.95;;;7.20;99.90;;;;;;1804011;79;21182;-82
2021/01/23 23:20:48;;;;;;;32.35;22.48;;;7.10;99.90;;;;;;1798382;79;21169;-82
2021/01/23 23:23:15;;;;;;;35.73;23.47;;;7.10;99.90;;;;;;1805263;79;21450;-82
2021/01/23 23:25:46;;;;;;;35.35;23.95;;;7.20;99.90;;;;;;1797815;79;21107;-82
2021/01/23 23:28:14;;;;;;;33.55;23.30;;;7.20;99.90;;;;;;1818837;77;21123;-82
2021/01/23 23:30:41;;;;;;;35.75;23.75;;;7.30;99.90;;;;;;1820682;78;21201;-82
2021/01/23 23:33:09;;;;;;;33.30;22.35;;;7.30;99.90;;;;;;1819582;77;21037;-82
2021/01/23 23:35:37;;;;;;;32.13;23.10;;;7.40;99.90;;;;;;1801480;77;21119;-83
2021/01/23 23:38:07;;;;;;;33.33;22.77;;;7.40;99.90;;;;;;1800985;79;21217;-83
2021/01/23 23:40:34;;;;;;;33.55;22.58;;;7.40;99.90;;;;;;1821826;77;21170;-83
2021/01/23 23:43:02;;;;;;;30.17;21.95;;;7.40;99.90;;;;;;1818585;77;21106;-83
2021/01/23 23:45:29;;;;;;;32.93;21.23;;;7.40;99.90;;;;;;1818845;78;21155;-83
2021/01/23 23:47:57;;;;;;;33.30;22.37;;;7.30;99.90;;;;;;1800489;79;21186;-81
2021/01/23 23:50:24;;;;;;;32.10;23.40;;;7.40;99.90;;;;;;1801180;79;21135;-83
2021/01/23 23:52:52;;;;;;;31.48;21.70;;;7.40;99.90;;;;;;1818925;78;21143;-82
2021/01/23 23:55:19;;;;;;;31.37;21.42;;;7.40;99.90;;;;;;1802648;79;21084;-83
2021/01/23 23:57:47;;;;;;;31.05;22.13;;;7.40;99.90;;;;;;1801858;79;21164;-82
